Time;durP1;ratioP1;P1;durP2;ratioP2;P2;SDS_P1;SDS_P2;PMS_P1;PMS_P2;Temp;Humidity;BMP_temperature;BMP_pressure;BME280_temperature;BME280_humidity;BME280_pressure;Samples;Min_cycle;Max_cycle;Signal;HPM_P1;HPM_P2
2023/02/24 00:00:51;;;;;;;0.20;0.20;;;4.50;99.90;;;;;;5057630;28;20021;-76
2023/02/24 00:03:17;;;;;;;0.10;0.10;;;4.50;99.90;;;;;;5044094;28;20024;-76
2023/02/24 00:05:47;;;;;;;0.20;0.20;;;4.50;99.90;;;;;;5037577;28;20483;-76
2023/02/24 00:08:12;;;;;;;0.20;0.20;;;4.50;99.90;;;;;;5035880;28;20096;-76
2023/02/24 00:10:38;;;;;;;0.30;0.30;;;4.50;99.90;;;;;;5052772;28;20029;-75
2023/02/24 00:13:03;;;;;;;0.10;0.10;;;4.50;99.90;;;;;;5056118;28;20041;-76
2023/02/24 00:15:29;;;;;;;0.17;0.17;;;4.50;99.90;;;;;;5057600;28;20029;-76
2023/02/24 00:17:54;;;;;;;0.13;0.13;;;4.50;99.90;;;;;;5056399;28;20367;-76
2023/02/24 00:20:20;;;;;;;0.20;0.20;;;4.50;99.90;;;;;;5055712;28;20116;-76
2023/02/24 00:22:46;;;;;;;0.20;0.20;;;4.40;99.90;;;;;;5056519;28;20021;-76
2023/02/24 00:25:13;;;;;;;0.20;0.20;;;4.40;99.90;;;;;;5056552;28;20577;-76
2023/02/24 00:27:41;;;;;;;0.20;0.20;;;4.40;99.90;;;;;;5099881;23;20343;-76
2023/02/24 00:30:10;;;;;;;0.20;0.20;;;4.40;99.90;;;;;;5036479;28;20044;-76
2023/02/24 00:32:36;;;;;;;0.10;0.10;;;4.40;99.90;;;;;;5036681;28;20025;-75
2023/02/24 00:35:02;;;;;;;0.10;0.10;;;4.40;99.90;;;;;;5018665;28;20398;-76
2023/02/24 00:37:28;;;;;;;0.20;0.20;;;4.40;99.90;;;;;;5018730;28;20469;-76
2023/02/24 00:39:57;;;;;;;0.17;0.17;;;4.40;99.90;;;;;;5036310;28;20044;-76
2023/02/24 00:42:23;;;;;;;0.15;0.15;;;4.40;99.90;;;;;;5019033;28;20128;-76
2023/02/24 00:44:52;;;;;;;0.20;0.20;;;4.40;99.90;;;;;;5036154;28;20029;-76
2023/02/24 00:47:18;;;;;;;0.10;0.10;;;4.40;99.90;;;;;;5018292;28;20022;-76
2023/02/24 00:49:44;;;;;;;0.20;0.20;;;4.40;99.90;;;;;;5035587;28;20017;-76
2023/02/24 00:52:19;;;;;;;0.20;0.20;;;4.50;99.90;;;;;;5036159;28;20108;-76
2023/02/24 00:54:46;;;;;;;0.17;0.17;;;4.40;99.90;;;;;;5036368;28;20025;-76
2023/02/24 00:57:13;;;;;;;0.13;0.13;;;4.40;99.90;;;;;;5016924;28;20018;-76
2023/02/24 00:59:39;;;;;;;0.20;0.20;;;4.40;99.90;;;;;;5036326;28;20478;-76
2023/02/24 01:02:05;;;;;;;0.20;0.20;;;4.40;99.90;;;;;;5035951;28;20036;-76
2023/02/24 01:04:32;;;;;;;0.20;0.20;;;4.40;99.90;;;;;;5035677;28;20067;-76
2023/02/24 01:07:00;;;;;;;0.20;0.20;;;4.40;99.90;;;;;;5036138;28;20119;-76
2023/02/24 01:09:29;;;;;;;0.30;0.30;;;4.50;99.90;;;;;;5017605;28;20032;-76
2023/02/24 01:12:37;;;;;;;0.20;0.20;;;4.50;99.90;;;;;;5035526;28;20036;-76
2023/02/24 01:14:48;;;;;;;0.20;0.20;;;4.50;99.90;;;;;;5032786;28;20107;-76
2023/02/24 01:17:15;;;;;;;0.20;0.20;;;4.50;99.90;;;;;;5017862;28;20033;-75
2023/02/24 01:19:42;;;;;;;0.10;0.10;;;4.50;99.90;;;;;;5027344;28;20022;-76
2023/02/24 01:22:08;;;;;;;0.10;0.10;;;4.50;99.90;;;;;;5018394;28;20032;-75
2023/02/24 01:24:39;;;;;;;0.13;0.13;;;4.40;99.90;;;;;;5017305;28;20401;-76
2023/02/24 01:27:05;;;;;;;0.20;0.20;;;4.50;99.90;;;;;;5018444;28;20391;-76
2023/02/24 01:29:31;;;;;;;0.20;0.20;;;4.50;99.90;;;;;;5017654;28;20060;-76
2023/02/24 01:31:57;;;;;;;0.20;0.20;;;4.50;99.90;;;;;;5031611;28;20707;-76
2023/02/24 01:34:27;;;;;;;0.20;0.20;;;4.50;99.90;;;;;;5017348;28;20087;-75
2023/02/24 01:36:53;;;;;;;0.20;0.20;;;4.60;99.90;;;;;;5017628;28;20075;-76
2023/02/24 01:39:19;;;;;;;0.20;0.20;;;4.60;99.90;;;;;;5035467;28;20028;-75
2023/02/24 01:41:46;;;;;;;0.20;0.20;;;4.60;99.90;;;;;;5034797;28;20117;-76
2023/02/24 01:44:13;;;;;;;0.20;0.20;;;4.70;99.90;;;;;;5035376;28;20026;-76
2023/02/24 01:46:43;;;;;;;0.20;0.20;;;4.70;99.90;;;;;;5035155;28;20017;-76
2023/02/24 01:49:28;;;;;;;0.20;0.20;;;4.70;99.90;;;;;;5035463;28;20025;-76
2023/02/24 01:52:03;;;;;;;0.20;0.20;;;4.80;99.90;;;;;;5034994;28;20029;-76
2023/02/24 01:54:43;;;;;;;0.20;0.20;;;4.80;99.90;;;;;;5035293;28;20021;-76
2023/02/24 01:57:11;;;;;;;0.30;0.30;;;4.80;99.90;;;;;;5035169;28;20026;-75
2023/02/24 01:59:37;;;;;;;0.20;0.20;;;4.80;99.90;;;;;;5034617;28;20025;-76
2023/02/24 02:02:06;;;;;;;0.30;0.30;;;4.90;99.90;;;;;;5017601;28;20025;-76
2023/02/24 02:04:53;;;;;;;0.15;0.15;;;4.90;99.90;;;;;;5033902;28;20613;-76
2023/02/24 02:07:20;;;;;;;0.20;0.20;;;4.80;99.90;;;;;;5034557;28;20048;-76
2023/02/24 02:09:48;;;;;;;0.20;0.20;;;4.90;99.90;;;;;;5017082;28;20029;-76
2023/02/24 02:12:14;;;;;;;0.20;0.20;;;4.90;99.90;;;;;;5016772;28;20025;-76
2023/02/24 02:14:43;;;;;;;0.20;0.20;;;4.90;99.90;;;;;;5031171;28;20025;-76
2023/02/24 02:17:16;;;;;;;0.20;0.20;;;4.90;99.90;;;;;;5017449;28;20053;-75
2023/02/24 02:19:51;;;;;;;0.10;0.10;;;4.90;99.90;;;;;;5030641;28;20042;-75
2023/02/24 02:22:35;;;;;;;0.10;0.10;;;4.90;99.90;;;;;;5014769;28;20018;-76
2023/02/24 02:25:28;;;;;;;0.20;0.20;;;4.90;99.90;;;;;;5014901;28;20045;-76
2023/02/24 02:28:05;;;;;;;0.20;0.20;;;5.00;99.90;;;;;;4996519;28;20038;-76
2023/02/24 02:31:12;;;;;;;0.20;0.20;;;5.00;99.90;;;;;;4997091;28;20542;-76
2023/02/24 02:34:21;;;;;;;0.20;0.20;;;5.00;99.90;;;;;;5032027;28;20036;-75
2023/02/24 02:36:56;;;;;;;0.20;0.20;;;5.00;99.90;;;;;;5016516;28;20033;-76
2023/02/24 02:40:00;;;;;;;0.20;0.20;;;5.00;99.90;;;;;;5039715;23;20469;-76
2023/02/24 02:43:04;;;;;;;0.20;0.20;;;5.00;99.90;;;;;;5021653;28;20550;-75
2023/02/24 02:45:46;;;;;;;0.20;0.20;;;5.00;99.90;;;;;;5035036;28;20029;-76
2023/02/24 02:48:37;;;;;;;0.20;0.20;;;5.00;99.90;;;;;;5033395;28;20029;-76
2023/02/24 02:51:15;;;;;;;0.20;0.20;;;4.90;99.90;;;;;;5015222;28;20057;-75
2023/02/24 02:53:59;;;;;;;0.25;0.25;;;4.80;99.90;;;;;;5015265;28;20498;-75
2023/02/24 02:56:36;;;;;;;0.20;0.20;;;4.80;99.90;;;;;;5015037;28;20038;-75
2023/02/24 02:59:04;;;;;;;0.10;0.10;;;4.70;99.90;;;;;;5014969;28;20030;-75
2023/02/24 03:01:34;;;;;;;0.30;0.30;;;4.60;99.90;;;;;;5014157;28;20030;-75
2023/02/24 03:04:04;;;;;;;0.10;0.10;;;4.60;99.90;;;;;;5017277;28;20391;-75
2023/02/24 03:06:40;;;;;;;0.20;0.20;;;4.50;99.90;;;;;;5014658;28;20030;-75
2023/02/24 03:09:15;;;;;;;0.20;0.20;;;4.40;99.90;;;;;;5014413;28;20026;-75
2023/02/24 03:11:42;;;;;;;0.30;0.30;;;4.40;99.90;;;;;;5014202;28;20480;-75
2023/02/24 03:14:11;;;;;;;0.20;0.20;;;4.40;99.90;;;;;;5021080;28;20067;-75
2023/02/24 03:16:38;;;;;;;0.17;0.17;;;4.40;99.90;;;;;;5032733;28;20033;-75
2023/02/24 03:19:06;;;;;;;0.20;0.20;;;4.40;99.90;;;;;;5057278;22;20157;-72
2023/02/24 03:22:05;;;;;;;0.20;0.20;;;4.40;99.90;;;;;;5015502;28;20034;-72
2023/02/24 03:24:31;;;;;;;0.20;0.20;;;4.40;99.90;;;;;;5024964;28;20051;-72
2023/02/24 03:27:19;;;;;;;0.20;0.20;;;4.40;99.90;;;;;;5035898;28;20060;-72
2023/02/24 03:30:14;;;;;;;0.20;0.20;;;4.40;99.90;;;;;;5017437;28;20018;-73
2023/02/24 03:32:49;;;;;;;0.20;0.20;;;4.50;99.90;;;;;;5025009;28;20033;-73
2023/02/24 03:35:17;;;;;;;0.20;0.20;;;4.50;99.90;;;;;;5015303;28;20057;-73
2023/02/24 03:37:43;;;;;;;0.20;0.20;;;4.50;99.90;;;;;;5017726;28;20034;-73
2023/02/24 03:40:13;;;;;;;0.20;0.20;;;4.50;99.90;;;;;;5032018;28;20017;-73
2023/02/24 03:42:53;;;;;;;0.20;0.20;;;4.60;99.90;;;;;;5032853;28;20093;-73
2023/02/24 03:45:21;;;;;;;0.30;0.30;;;4.60;99.90;;;;;;5032751;28;20108;-72
2023/02/24 03:47:47;;;;;;;0.20;0.20;;;4.70;99.90;;;;;;5036743;28;20021;-72
2023/02/24 03:50:16;;;;;;;0.20;0.20;;;4.60;99.90;;;;;;5033111;28;20021;-73
2023/02/24 03:52:57;;;;;;;0.20;0.20;;;4.60;99.90;;;;;;5036449;28;20544;-73
2023/02/24 03:55:43;;;;;;;0.20;0.20;;;4.60;99.90;;;;;;5036832;28;20030;-72
2023/02/24 03:58:45;;;;;;;0.20;0.20;;;4.60;99.90;;;;;;5035348;28;20037;-73
2023/02/24 04:01:35;;;;;;;0.20;0.20;;;4.60;99.90;;;;;;5035614;28;20112;-72
2023/02/24 04:04:17;;;;;;;0.20;0.20;;;4.60;99.90;;;;;;5036588;28;20552;-73
2023/02/24 04:06:52;;;;;;;0.13;0.13;;;4.60;99.90;;;;;;5036489;28;20028;-73
2023/02/24 04:09:25;;;;;;;0.20;0.20;;;4.50;99.90;;;;;;5036487;28;20025;-72
2023/02/24 04:12:25;;;;;;;0.20;0.20;;;4.50;99.90;;;;;;5036344;28;20159;-72
2023/02/24 04:15:18;;;;;;;0.20;0.20;;;4.50;99.90;;;;;;5027081;28;20061;-72
2023/02/24 04:17:50;;;;;;;0.20;0.20;;;4.50;99.90;;;;;;5015089;28;20044;-72
2023/02/24 04:20:19;;;;;;;0.10;0.10;;;4.50;99.90;;;;;;5020656;28;20021;-72
2023/02/24 04:22:51;;;;;;;0.20;0.20;;;4.50;99.90;;;;;;5035411;28;20025;-72
2023/02/24 04:25:23;;;;;;;0.20;0.20;;;4.50;99.90;;;;;;5036107;28;20022;-72
2023/02/24 04:27:52;;;;;;;0.20;0.20;;;4.40;99.90;;;;;;5022251;28;20030;-72
2023/02/24 04:30:19;;;;;;;0.20;0.20;;;4.40;99.90;;;;;;5016012;28;20108;-72
2023/02/24 04:32:44;;;;;;;0.20;0.20;;;4.40;99.90;;;;;;5015672;28;20032;-72
2023/02/24 04:35:18;;;;;;;0.17;0.17;;;4.30;99.90;;;;;;5015828;28;20029;-72
2023/02/24 04:37:43;;;;;;;0.20;0.20;;;4.30;99.90;;;;;;5022990;28;20402;-72
2023/02/24 04:40:12;;;;;;;0.20;0.20;;;4.30;99.90;;;;;;5036424;28;20029;-72
2023/02/24 04:42:45;;;;;;;0.15;0.15;;;4.30;99.90;;;;;;5035090;28;20418;-71
2023/02/24 04:45:11;;;;;;;0.10;0.10;;;4.30;99.90;;;;;;5036170;28;20106;-72
2023/02/24 04:47:37;;;;;;;0.20;0.20;;;4.30;99.90;;;;;;5035155;28;20037;-71
2023/02/24 04:50:05;;;;;;;0.28;0.28;;;4.30;99.90;;;;;;5035794;28;20071;-72
2023/02/24 04:52:31;;;;;;;0.13;0.13;;;4.40;99.90;;;;;;5035108;28;20025;-72
2023/02/24 04:54:58;;;;;;;0.10;0.10;;;4.30;99.90;;;;;;5033163;28;20030;-72
2023/02/24 04:57:23;;;;;;;0.20;0.20;;;4.40;99.90;;;;;;5032127;28;20101;-72
2023/02/24 04:59:52;;;;;;;0.20;0.20;;;4.30;99.90;;;;;;5035153;28;20101;-71
2023/02/24 05:02:19;;;;;;;0.20;0.20;;;4.30;99.90;;;;;;5028900;28;20080;-71
2023/02/24 05:04:48;;;;;;;0.20;0.20;;;4.40;99.90;;;;;;5015914;28;20025;-71
2023/02/24 05:07:14;;;;;;;0.10;0.10;;;4.40;99.90;;;;;;5015229;28;20029;-71
2023/02/24 05:09:43;;;;;;;0.10;0.10;;;4.40;99.90;;;;;;5014223;28;20049;-71
2023/02/24 05:12:10;;;;;;;0.10;0.10;;;4.40;99.90;;;;;;5014297;28;20022;-71
2023/02/24 05:14:38;;;;;;;0.20;0.20;;;4.40;99.90;;;;;;5033635;28;20025;-71
2023/02/24 05:17:03;;;;;;;0.20;0.20;;;4.40;99.90;;;;;;5034520;28;20018;-71
2023/02/24 05:22:16;;;;;;;;;;;4.40;99.90;;;;;;5015717;28;20033;-71
2023/02/24 05:24:46;;;;;;;0.10;0.10;;;4.40;99.90;;;;;;5015237;28;19992;-71
2023/02/24 05:27:12;;;;;;;0.10;0.10;;;4.50;99.90;;;;;;5021744;28;20017;-70
2023/02/24 05:29:40;;;;;;;0.20;0.20;;;4.40;99.90;;;;;;5034905;28;20497;-70
2023/02/24 05:32:07;;;;;;;0.20;0.20;;;4.40;99.90;;;;;;5034692;28;20092;-70
2023/02/24 05:34:33;;;;;;;0.20;0.20;;;4.30;99.90;;;;;;5026045;28;20022;-70
2023/02/24 05:37:00;;;;;;;0.10;0.10;;;4.40;99.90;;;;;;5015132;28;20480;-70
2023/02/24 05:39:27;;;;;;;0.13;0.13;;;4.30;99.90;;;;;;5017157;28;20030;-70
2023/02/24 05:41:55;;;;;;;0.20;0.20;;;4.20;99.90;;;;;;5015287;28;20072;-70
2023/02/24 05:44:24;;;;;;;0.15;0.15;;;4.30;99.90;;;;;;5030235;28;20018;-70
2023/02/24 05:46:55;;;;;;;0.20;0.20;;;4.20;99.90;;;;;;5034074;28;20024;-70
2023/02/24 05:49:25;;;;;;;0.20;0.20;;;4.20;99.90;;;;;;5016060;28;20181;-70
2023/02/24 05:51:53;;;;;;;0.10;0.10;;;4.10;99.90;;;;;;5014806;28;20034;-70
2023/02/24 05:54:19;;;;;;;0.10;0.10;;;4.20;99.90;;;;;;5013658;28;20026;-70
2023/02/24 05:56:45;;;;;;;0.10;0.10;;;4.10;99.90;;;;;;5014444;28;20063;-70
2023/02/24 05:59:16;;;;;;;0.20;0.20;;;4.10;99.90;;;;;;5016651;28;20029;-70
2023/02/24 06:01:45;;;;;;;0.10;0.10;;;4.20;99.90;;;;;;5016927;28;20060;-70
2023/02/24 06:04:19;;;;;;;0.20;0.20;;;4.10;99.90;;;;;;5014386;28;20475;-70
2023/02/24 06:06:51;;;;;;;0.15;0.15;;;4.10;99.90;;;;;;5020188;28;20021;-70
2023/02/24 06:09:18;;;;;;;0.10;0.10;;;4.10;99.90;;;;;;5033727;28;20062;-70
2023/02/24 06:11:44;;;;;;;0.20;0.20;;;4.10;99.90;;;;;;5034317;28;20021;-70
2023/02/24 06:14:10;;;;;;;0.20;0.20;;;4.10;99.90;;;;;;5034201;28;20479;-70
2023/02/24 06:16:38;;;;;;;0.10;0.10;;;4.10;99.90;;;;;;5034140;28;20025;-70
2023/02/24 06:19:06;;;;;;;0.10;0.10;;;4.20;99.90;;;;;;5032802;28;20566;-69
2023/02/24 06:21:34;;;;;;;0.10;0.10;;;4.20;99.90;;;;;;5033973;28;20486;-70
2023/02/24 06:24:00;;;;;;;0.15;0.15;;;4.20;99.90;;;;;;5034332;28;20056;-70
2023/02/24 06:26:28;;;;;;;0.20;0.20;;;4.20;99.90;;;;;;5032509;28;20025;-70
2023/02/24 06:28:55;;;;;;;0.10;0.10;;;4.30;99.90;;;;;;5033259;28;20022;-70
2023/02/24 06:31:23;;;;;;;0.10;0.10;;;4.20;99.90;;;;;;5033753;28;20029;-70
2023/02/24 06:33:49;;;;;;;0.20;0.20;;;4.20;99.90;;;;;;5033600;28;20401;-70
2023/02/24 06:36:15;;;;;;;0.10;0.10;;;4.20;99.90;;;;;;5034024;28;20112;-70
2023/02/24 06:38:40;;;;;;;0.10;0.10;;;4.20;99.90;;;;;;5031588;28;20030;-70
2023/02/24 06:41:09;;;;;;;0.10;0.10;;;4.30;99.90;;;;;;5016707;28;20423;-71
2023/02/24 06:43:43;;;;;;;0.10;0.10;;;4.30;99.90;;;;;;5013219;28;20152;-71
2023/02/24 06:46:13;;;;;;;;;;;4.30;99.90;;;;;;5027207;28;20018;-71
2023/02/24 06:48:38;;;;;;;0.10;0.10;;;4.30;99.90;;;;;;5032678;28;19905;-71
2023/02/24 06:51:05;;;;;;;0.10;0.10;;;4.30;99.90;;;;;;5033785;28;20032;-71
2023/02/24 06:53:34;;;;;;;0.10;0.10;;;4.40;99.90;;;;;;5033365;28;20497;-71
2023/02/24 06:56:05;;;;;;;0.10;0.10;;;4.40;99.90;;;;;;5029173;28;20372;-71
2023/02/24 06:58:31;;;;;;;0.10;0.10;;;4.50;99.90;;;;;;5016793;28;20029;-71
2023/02/24 07:01:01;;;;;;;0.15;0.15;;;4.50;99.90;;;;;;5034113;28;20022;-71
2023/02/24 07:03:45;;;;;;;0.10;0.10;;;4.50;99.90;;;;;;5016486;28;20119;-71
2023/02/24 07:06:19;;;;;;;0.10;0.10;;;4.60;99.90;;;;;;5018387;28;20128;-73
2023/02/24 07:08:46;;;;;;;0.10;0.10;;;4.60;99.90;;;;;;5018953;28;20084;-73
2023/02/24 07:11:12;;;;;;;0.10;0.10;;;4.60;99.90;;;;;;5017709;28;20040;-72
2023/02/24 07:13:39;;;;;;;0.10;0.10;;;4.60;99.90;;;;;;5036233;28;20044;-72
2023/02/24 07:16:06;;;;;;;0.20;0.20;;;4.70;99.90;;;;;;5037195;28;20035;-72
2023/02/24 07:18:35;;;;;;;0.10;0.10;;;4.80;99.90;;;;;;5037624;28;20037;-73
2023/02/24 07:21:10;;;;;;;0.10;0.10;;;4.80;99.90;;;;;;5038034;28;20021;-72
2023/02/24 07:23:37;;;;;;;0.10;0.10;;;4.90;99.90;;;;;;5037186;28;20025;-71
2023/02/24 07:26:10;;;;;;;0.00;0.00;;;4.90;99.90;;;;;;5036882;28;20021;-71
2023/02/24 07:28:40;;;;;;;0.10;0.10;;;5.00;99.90;;;;;;5036375;28;20026;-71
2023/02/24 07:31:12;;;;;;;0.10;0.10;;;5.10;99.90;;;;;;5037122;28;20068;-71
2023/02/24 07:33:38;;;;;;;0.10;0.10;;;5.20;99.90;;;;;;5037026;28;20025;-71
2023/02/24 07:36:09;;;;;;;0.10;0.10;;;5.30;99.90;;;;;;5037047;28;20069;-71
2023/02/24 07:38:38;;;;;;;0.10;0.10;;;5.40;99.90;;;;;;5036837;28;20048;-72
2023/02/24 07:41:05;;;;;;;0.10;0.10;;;5.50;99.90;;;;;;5037354;28;20025;-72
2023/02/24 07:43:32;;;;;;;0.10;0.10;;;5.50;99.90;;;;;;5036710;28;20125;-72
2023/02/24 07:46:06;;;;;;;0.10;0.10;;;5.60;99.90;;;;;;5037293;28;20017;-72
2023/02/24 07:48:31;;;;;;;;;;;5.50;99.90;;;;;;5036924;28;20627;-72
2023/02/24 07:50:58;;;;;;;0.00;0.00;;;5.60;99.90;;;;;;5036482;28;19909;-71
2023/02/24 07:53:26;;;;;;;0.10;0.10;;;5.70;99.90;;;;;;5037151;28;20021;-71
2023/02/24 07:55:52;;;;;;;0.00;0.00;;;5.70;99.90;;;;;;5036440;28;20064;-71
2023/02/24 07:58:18;;;;;;;0.10;0.10;;;5.80;99.90;;;;;;5036523;28;20049;-71
2023/02/24 08:00:58;;;;;;;0.00;0.00;;;5.90;99.90;;;;;;5024385;28;20522;-70
2023/02/24 08:03:28;;;;;;;0.10;0.10;;;5.90;99.90;;;;;;5032833;28;20017;-71
2023/02/24 08:06:11;;;;;;;0.10;0.10;;;5.80;99.90;;;;;;5035433;28;20059;-71
2023/02/24 08:08:56;;;;;;;0.10;0.10;;;5.70;99.90;;;;;;5035957;28;20109;-71
2023/02/24 08:11:26;;;;;;;0.10;0.10;;;5.80;99.90;;;;;;5034554;28;20048;-71
2023/02/24 08:13:52;;;;;;;0.10;0.10;;;5.80;99.90;;;;;;5034791;28;20035;-71
2023/02/24 08:16:18;;;;;;;0.00;0.00;;;5.80;99.90;;;;;;5035714;28;20025;-71
2023/02/24 08:18:47;;;;;;;0.10;0.10;;;5.80;99.90;;;;;;5032606;28;20034;-71
2023/02/24 08:21:28;;;;;;;0.10;0.10;;;5.90;99.90;;;;;;5036144;28;20017;-71
2023/02/24 08:24:01;;;;;;;0.10;0.10;;;6.00;99.90;;;;;;5034789;28;20025;-71
2023/02/24 08:26:30;;;;;;;0.10;0.10;;;6.00;99.90;;;;;;5035947;28;20108;-71
2023/02/24 08:28:56;;;;;;;0.10;0.10;;;6.10;99.90;;;;;;5029588;28;20057;-71
2023/02/24 08:31:21;;;;;;;0.10;0.10;;;6.20;99.90;;;;;;5016727;28;20130;-71
2023/02/24 08:33:47;;;;;;;0.10;0.10;;;6.20;99.90;;;;;;5016196;28;20041;-71
2023/02/24 08:36:19;;;;;;;0.10;0.10;;;6.30;99.90;;;;;;5016169;28;20026;-71
2023/02/24 08:38:50;;;;;;;0.00;0.00;;;6.30;99.90;;;;;;5033161;28;20029;-71
2023/02/24 08:41:28;;;;;;;0.10;0.10;;;6.30;99.90;;;;;;5035326;28;20490;-71
2023/02/24 08:43:54;;;;;;;0.10;0.10;;;6.40;99.90;;;;;;5034511;28;20025;-71
2023/02/24 08:46:25;;;;;;;0.13;0.13;;;6.40;99.90;;;;;;5035943;28;20028;-71
2023/02/24 08:48:56;;;;;;;0.10;0.10;;;6.50;99.90;;;;;;5035666;28;20031;-71
2023/02/24 08:51:33;;;;;;;0.10;0.10;;;6.50;99.90;;;;;;5035772;28;20037;-71
2023/02/24 08:54:02;;;;;;;0.17;0.17;;;6.50;99.90;;;;;;5032130;28;20494;-72
2023/02/24 08:56:33;;;;;;;0.10;0.10;;;6.50;99.90;;;;;;5035817;28;20064;-72
2023/02/24 08:59:04;;;;;;;0.10;0.10;;;6.40;99.90;;;;;;5035323;28;20025;-72
2023/02/24 09:01:34;;;;;;;0.10;0.10;;;6.40;99.90;;;;;;5036278;28;20035;-72
2023/02/24 09:04:05;;;;;;;0.10;0.10;;;6.50;99.90;;;;;;5034873;28;20021;-72
2023/02/24 09:06:45;;;;;;;0.10;0.10;;;6.50;99.90;;;;;;5035661;28;20026;-72
2023/02/24 09:09:16;;;;;;;0.10;0.10;;;6.50;99.90;;;;;;5035208;28;20061;-72
2023/02/24 09:11:48;;;;;;;0.10;0.10;;;6.60;99.90;;;;;;5021068;28;20030;-72
2023/02/24 09:14:17;;;;;;;0.10;0.10;;;6.90;99.90;;;;;;5015178;28;20053;-72
2023/02/24 09:17:02;;;;;;;0.10;0.10;;;7.00;99.90;;;;;;5025295;28;20056;-72
2023/02/24 09:19:39;;;;;;;0.15;0.15;;;7.00;99.90;;;;;;5034356;28;20029;-72
2023/02/24 09:22:31;;;;;;;0.17;0.17;;;6.80;99.90;;;;;;5034897;28;20117;-73
2023/02/24 09:25:22;;;;;;;0.10;0.10;;;6.80;99.90;;;;;;5035727;28;20021;-72
2023/02/24 09:28:09;;;;;;;0.10;0.10;;;7.00;99.90;;;;;;5033672;28;20025;-73
2023/02/24 09:30:49;;;;;;;0.20;0.20;;;7.10;99.90;;;;;;5034345;28;20021;-72
2023/02/24 09:33:17;;;;;;;0.20;0.20;;;7.00;99.90;;;;;;5026359;28;20065;-72
2023/02/24 09:36:08;;;;;;;0.10;0.10;;;7.10;99.90;;;;;;5015086;28;20109;-72
2023/02/24 09:44:44;;;;;;;0.20;0.20;;;7.30;99.90;;;;;;5031921;28;20052;-73
2023/02/24 09:47:38;;;;;;;0.20;0.20;;;7.20;99.90;;;;;;5034314;28;20013;-72
2023/02/24 09:50:16;;;;;;;0.20;0.20;;;7.20;99.90;;;;;;5027102;28;20428;-73
2023/02/24 09:52:42;;;;;;;0.20;0.20;;;7.30;99.90;;;;;;5014343;28;20044;-73
2023/02/24 09:55:23;;;;;;;0.20;0.20;;;7.30;99.90;;;;;;5014475;28;20490;-73
2023/02/24 10:00:54;;;;;;;0.17;0.17;;;7.30;99.90;;;;;;5035267;28;20029;-73
2023/02/24 10:03:41;;;;;;;0.17;0.17;;;7.20;99.90;;;;;;5026052;28;20057;-73
2023/02/24 10:06:34;;;;;;;0.20;0.20;;;7.20;99.90;;;;;;5014529;28;20364;-73
2023/02/24 10:09:13;;;;;;;0.10;0.10;;;7.30;99.90;;;;;;5022074;28;20030;-73
2023/02/24 10:11:52;;;;;;;0.20;0.20;;;7.30;99.90;;;;;;5014962;28;20030;-73
2023/02/24 10:14:26;;;;;;;0.10;0.10;;;7.30;99.90;;;;;;5014956;28;20033;-73
2023/02/24 10:19:40;;;;;;;0.13;0.13;;;7.40;99.90;;;;;;5014130;28;20088;-73
2023/02/24 10:22:26;;;;;;;0.20;0.20;;;7.50;99.90;;;;;;5032197;28;20085;-73
2023/02/24 10:25:18;;;;;;;0.20;0.20;;;7.60;99.90;;;;;;5032996;28;20021;-73
2023/02/24 10:28:01;;;;;;;0.10;0.10;;;7.70;99.90;;;;;;5010967;28;20502;-73
2023/02/24 10:30:39;;;;;;;;;;;7.90;99.90;;;;;;5014314;28;20105;-73
2023/02/24 10:33:24;;;;;;;0.20;0.20;;;7.90;99.90;;;;;;5029144;28;19944;-73
2023/02/24 10:35:50;;;;;;;0.20;0.20;;;7.90;99.90;;;;;;5032308;28;20022;-73
2023/02/24 10:38:16;;;;;;;0.20;0.20;;;7.90;99.90;;;;;;5034388;28;20033;-73
2023/02/24 10:40:55;;;;;;;0.10;0.10;;;7.80;99.90;;;;;;5034148;28;20433;-74
2023/02/24 10:43:28;;;;;;;0.20;0.20;;;7.80;99.90;;;;;;5034299;28;20022;-73
2023/02/24 10:46:05;;;;;;;0.20;0.20;;;7.80;99.90;;;;;;5034226;28;20021;-73
2023/02/24 10:48:37;;;;;;;0.20;0.20;;;8.00;99.90;;;;;;5024451;28;20018;-73
2023/02/24 10:51:10;;;;;;;0.20;0.20;;;8.20;99.90;;;;;;5013111;28;20022;-74
2023/02/24 10:53:36;;;;;;;0.20;0.20;;;8.30;99.90;;;;;;5019444;28;20033;-73
2023/02/24 10:56:25;;;;;;;0.10;0.10;;;8.10;99.90;;;;;;5032747;28;20391;-73
2023/02/24 11:01:58;;;;;;;0.20;0.20;;;8.10;99.90;;;;;;5034425;28;20035;-73
2023/02/24 11:07:42;;;;;;;0.20;0.20;;;7.90;99.90;;;;;;5014351;28;20510;-71
2023/02/24 11:10:25;;;;;;;0.20;0.20;;;7.40;99.90;;;;;;5032861;28;20032;-71
2023/02/24 11:18:38;;;;;;;0.20;0.20;;;5.90;99.90;;;;;;5028747;28;20116;-71
2023/02/24 11:21:09;;;;;;;0.20;0.20;;;5.90;99.90;;;;;;5013708;28;20030;-71
2023/02/24 11:23:41;;;;;;;0.20;0.20;;;5.90;99.90;;;;;;5012006;28;20026;-71
2023/02/24 11:26:26;;;;;;;0.20;0.20;;;6.10;99.90;;;;;;5012537;28;20022;-71
2023/02/24 11:29:02;;;;;;;0.10;0.10;;;6.40;99.90;;;;;;5011592;28;20052;-71
2023/02/24 11:31:42;;;;;;;0.10;0.10;;;6.50;99.90;;;;;;5032620;28;20060;-71
2023/02/24 11:34:41;;;;;;;0.10;0.10;;;6.80;99.90;;;;;;5013495;28;20062;-71
2023/02/24 11:37:21;;;;;;;0.20;0.20;;;7.00;99.90;;;;;;5011637;28;20492;-71
2023/02/24 11:40:00;;;;;;;0.20;0.20;;;6.90;99.90;;;;;;5013506;28;20034;-71
2023/02/24 11:42:47;;;;;;;0.10;0.10;;;7.10;99.90;;;;;;5020073;28;20077;-72
2023/02/24 11:45:43;;;;;;;0.20;0.20;;;7.30;99.90;;;;;;5037123;28;20030;-72
2023/02/24 11:48:21;;;;;;;0.20;0.20;;;7.40;99.90;;;;;;5033671;28;20052;-73
2023/02/24 11:51:01;;;;;;;0.20;0.20;;;7.40;99.90;;;;;;5028994;28;20022;-72
2023/02/24 11:53:48;;;;;;;0.20;0.20;;;7.30;99.90;;;;;;5031591;28;20034;-73
2023/02/24 11:56:32;;;;;;;0.20;0.20;;;7.30;99.90;;;;;;5019954;28;20084;-73
2023/02/24 11:59:19;;;;;;;0.10;0.10;;;7.60;99.90;;;;;;5018000;28;20033;-73
2023/02/24 12:01:51;;;;;;;0.13;0.13;;;7.70;99.90;;;;;;5017517;28;20033;-73
2023/02/24 12:04:39;;;;;;;0.15;0.15;;;7.70;99.90;;;;;;5031515;28;20071;-73
2023/02/24 12:07:27;;;;;;;0.20;0.20;;;7.60;99.90;;;;;;5037476;28;20017;-73
2023/02/24 12:10:04;;;;;;;0.20;0.20;;;7.40;99.90;;;;;;5031523;28;20072;-73
2023/02/24 12:12:44;;;;;;;0.20;0.20;;;7.20;99.90;;;;;;5031171;28;20029;-73
2023/02/24 12:15:29;;;;;;;0.10;0.10;;;7.20;99.90;;;;;;5028843;28;20026;-73
2023/02/24 12:18:11;;;;;;;0.20;0.20;;;7.40;99.90;;;;;;5051409;28;20025;-73
2023/02/24 12:20:54;;;;;;;0.20;0.20;;;7.40;99.90;;;;;;5035544;28;20021;-73
2023/02/24 12:23:39;;;;;;;0.20;0.20;;;7.20;99.90;;;;;;5037512;28;20100;-73
2023/02/24 12:26:13;;;;;;;0.20;0.20;;;7.00;99.90;;;;;;5036758;28;20021;-73
2023/02/24 12:29:14;;;;;;;0.20;0.20;;;6.90;99.90;;;;;;5037187;28;20479;-73
2023/02/24 12:31:52;;;;;;;0.20;0.20;;;6.70;99.90;;;;;;5036839;28;20500;-73
2023/02/24 12:34:54;;;;;;;0.10;0.10;;;6.90;99.90;;;;;;5035475;28;20437;-73
2023/02/24 12:37:43;;;;;;;0.20;0.20;;;7.40;99.90;;;;;;5037442;28;20022;-73
2023/02/24 12:40:29;;;;;;;0.10;0.10;;;7.40;99.90;;;;;;5036793;28;20083;-73
2023/02/24 12:43:25;;;;;;;0.10;0.10;;;7.10;99.90;;;;;;5035101;28;20018;-73
2023/02/24 12:46:12;;;;;;;0.20;0.20;;;7.00;99.90;;;;;;5036239;28;20547;-72
2023/02/24 12:49:17;;;;;;;0.10;0.10;;;6.80;99.90;;;;;;5035079;28;20076;-72
2023/02/24 12:52:03;;;;;;;0.20;0.20;;;6.80;99.90;;;;;;5036383;28;20029;-73
2023/02/24 12:54:40;;;;;;;0.20;0.20;;;6.80;99.90;;;;;;5034057;28;20033;-72
2023/02/24 12:57:24;;;;;;;0.20;0.20;;;6.80;99.90;;;;;;5036034;28;20021;-73
2023/02/24 12:59:51;;;;;;;0.20;0.20;;;6.80;99.90;;;;;;5035666;28;20040;-73
2023/02/24 13:02:35;;;;;;;0.20;0.20;;;6.70;99.90;;;;;;5032337;28;20029;-73
2023/02/24 13:05:32;;;;;;;0.20;0.20;;;6.70;99.90;;;;;;5035088;28;20487;-73
2023/02/24 13:08:13;;;;;;;0.20;0.20;;;6.70;99.90;;;;;;5020928;28;20054;-73
2023/02/24 13:11:02;;;;;;;0.20;0.20;;;6.90;99.90;;;;;;5015583;28;20165;-73
2023/02/24 13:13:55;;;;;;;0.20;0.20;;;6.90;99.90;;;;;;5016357;28;20053;-74
2023/02/24 13:16:29;;;;;;;0.10;0.10;;;6.90;99.90;;;;;;5035592;28;20407;-73
2023/02/24 13:19:23;;;;;;;0.10;0.10;;;7.50;99.90;;;;;;5033660;28;20109;-74
2023/02/24 13:22:10;;;;;;;0.20;0.20;;;7.80;99.90;;;;;;5011542;28;20037;-74
2023/02/24 13:24:43;;;;;;;0.20;0.20;;;7.90;99.90;;;;;;5018075;28;20513;-74
2023/02/24 13:27:11;;;;;;;0.20;0.20;;;7.90;99.90;;;;;;5035390;28;20040;-74
2023/02/24 13:29:54;;;;;;;0.20;0.20;;;8.30;99.90;;;;;;5026158;28;20149;-74
2023/02/24 13:32:32;;;;;;;0.20;0.20;;;8.20;99.90;;;;;;5013997;28;20117;-74
2023/02/24 13:35:01;;;;;;;0.20;0.20;;;8.10;99.90;;;;;;5025907;28;20475;-74
2023/02/24 13:37:38;;;;;;;0.30;0.30;;;7.90;99.90;;;;;;5034784;28;20501;-74
2023/02/24 13:40:26;;;;;;;0.20;0.20;;;7.70;99.90;;;;;;5024271;28;20026;-74
2023/02/24 13:43:00;;;;;;;0.20;0.20;;;7.40;99.90;;;;;;5014301;28;20026;-74
2023/02/24 13:45:33;;;;;;;0.20;0.20;;;7.50;99.90;;;;;;5022043;28;20022;-73
2023/02/24 13:48:36;;;;;;;0.20;0.20;;;7.40;99.90;;;;;;5034408;28;20446;-74
2023/02/24 13:51:29;;;;;;;0.20;0.20;;;7.50;99.90;;;;;;5035131;28;20034;-74
2023/02/24 13:54:18;;;;;;;0.20;0.20;;;7.50;99.90;;;;;;5034775;28;20402;-74
2023/02/24 13:56:59;;;;;;;0.20;0.20;;;7.50;99.90;;;;;;5034905;28;20030;-74
2023/02/24 13:59:48;;;;;;;0.20;0.20;;;7.40;99.90;;;;;;5015051;28;20529;-74
2023/02/24 14:02:23;;;;;;;0.10;0.10;;;7.40;99.90;;;;;;5032588;28;20030;-74